Pagina principale
METAR-TAF:

METAR-TAF

Aeroporti :

Pembrey, Galles

latitudine: 51-43N, longitudine: 004-22W, altezza: 3 m

Osservazione

Il bollettino è stato emesso 1 ora e 1 minuti fa, alle 01:50 UTC
Vento 17 kt da sud-est
Temperature 7°C
Umidità 100%
Pressione 1016 hPa
Visibilità: 5000 m

METAR: EGOP 240150Z AUTO 14017KT 5000 // FEW005/// BKN008/// 07/07 Q1016

Ora: 02:51 (02:51 UTC)


TAF: mancante

Osservazioni e previsioni meteorologiche di più di 4000 aeroporti (messaggi METAR e TAF).

Le stazioni disponibili sono rappresentate dai dischi gialli e rossi sulla carta.

Puntare il mouse per vedere il nome della stazione.

Clicca sopra per visualizzare le osservazioni e previsioni meteorologiche.

Per cambiare la mappa : fare clic sui pulsanti verdi con una croce nera per ingrandire, il pulsante verde con un trattino per diminuire, o sulla freccia verde per le mappe adiacenti.


METAR-TAF: